Airfield :
LOGIN :

Register | Disclaimer

   EN    FR    IT 

 










Legend :    VFR   Marginal VFR   IFR   Intensive IFR   Very Intensive IFR
Visi :
Ceiling :
>= 8 km
>= 3000ft
5 to 8 km
1000 to 3000 ft
1500m to 5 km
500 to 1000 ft
800 to 1500m
200 to 500 ft
< 800m
< 200 ft
Symbols :   Thunderstorms  Fog  Heavy snow  Heavy precipitations  Wind > 20 kt
SIGMETs :     Misc.  Thunderstorms  Icing  Turbulence  Mountain Waves  Volcanic Ashes







- Airport Elevation : 26 ft
- IATA code : SYY
- Download approach charts


EGPO - Stornoway

CURRENT METAR :
  • 210750Z AUTO 19008KT 9999 SCT007/// SCT019/// BKN030/// 14/13 Q1008

EXPIRED METARs :
  • 210720Z AUTO 19012KT 9999 SCT030/// SCT038/// BKN047/// 14/13 Q1008
  • 210650Z AUTO 20012KT 9999 FEW023/// BKN032/// 14/12 Q1008
  • 210620Z AUTO 18009KT 140V220 9999 FEW019/// OVC047/// 14/12 Q1008
  • 210550Z AUTO 19009KT 9999 SCT031/// BKN042/// 14/12 Q1008
  • 210520Z AUTO 19009KT 9999 FEW029/// SCT033/// BKN048/// 14/12 Q1008

TAF TAF EGPO
Valid from the 21 at 06:00 until the 21 at 15:00 UTC


210500Z 2106/2115 20012KT 9999 FEW015 SCT035
PROB30
TEMPO 2106/2112 8000 -SHRA BKN012
TEMPO 2112/2115 19015G25KT
PROB40
TEMPO 2112/2115 6000 RA BKN008
ATIS : +44 1851 707 444
No reported NOTAMs for that airfield.



MET'MAP, your aeronautical weather chart ! - Copyright ORBIFLY December 2007 - Disclaimer

ORBIFLY MET'MAP TEAM :

Programming & Development : Alexandra Zaïnal
Concept & Development : Baudouin d'Aumeries
Co-Development & Prog : Marc-Olivier Méhu
Technical & hardware support : Manuel Goepfert

Contact : metmap@orbifly.com




SOURCES & CREDITS :

   NOAA